Time;durP1;ratioP1;P1;durP2;ratioP2;P2;SDS_P1;SDS_P2;PMS_P1;PMS_P2;Temp;Humidity;BMP_temperature;BMP_pressure;BME280_temperature;BME280_humidity;BME280_pressure;Samples;Min_cycle;Max_cycle;Signal;HPM_P1;HPM_P2
2022/11/03 00:01:26;;;;;;;8.23;2.00;;;;;;;;;;5972240;23;20350;-92
2022/11/03 00:06:03;;;;;;;7.05;2.20;;;;;;;;;;5977080;23;20399;-92
2022/11/03 00:09:38;;;;;;;6.15;2.30;;;;;;;;;;6007452;23;20024;-91
2022/11/03 00:13:38;;;;;;;10.07;2.40;;;;;;;;;;5982578;23;20040;-92
2022/11/03 00:17:14;;;;;;;11.63;2.15;;;;;;;;;;5935729;24;20172;-92
2022/11/03 00:25:03;;;;;;;7.50;2.30;;;;;;;;;;6078280;23;20017;-88
2022/11/03 00:28:51;;;;;;;7.53;2.33;;;;;;;;;;5939535;23;20125;-88
2022/11/03 00:32:41;;;;;;;6.80;2.10;;;;;;;;;;5994913;23;20034;-88
2022/11/03 00:36:41;;;;;;;4.55;2.17;;;;;;;;;;5942412;24;20080;-88
2022/11/03 00:49:20;;;;;;;6.25;2.10;;;;;;;;;;5925662;24;20013;-93
2022/11/03 00:53:40;;;;;;;6.85;1.70;;;;;;;;;;5919779;24;20028;-92
2022/11/03 00:57:18;;;;;;;8.80;2.25;;;;;;;;;;5952719;24;20028;-93
2022/11/03 01:01:47;;;;;;;8.68;2.00;;;;;;;;;;5909994;24;20289;-92
2022/11/03 01:09:37;;;;;;;8.18;1.77;;;;;;;;;;5965994;24;20019;-91
2022/11/03 01:18:18;;;;;;;9.80;2.08;;;;;;;;;;5955626;23;20031;-92
2022/11/03 01:25:33;;;;;;;11.10;1.98;;;;;;;;;;6028449;23;20382;-90
2022/11/03 01:28:57;;;;;;;5.72;1.98;;;;;;;;;;6017621;23;20039;-90
2022/11/03 01:41:30;;;;;;;10.20;1.73;;;;;;;;;;6088601;23;20022;-90
2022/11/03 01:44:42;;;;;;;7.53;2.10;;;;;;;;;;6006054;23;20025;-90
2022/11/03 01:52:14;;;;;;;5.50;2.35;;;;;;;;;;6058127;23;20109;-91
2022/11/03 01:55:26;;;;;;;6.53;1.92;;;;;;;;;;6044919;23;20074;-90
2022/11/03 01:59:26;;;;;;;7.70;1.90;;;;;;;;;;6061621;23;20019;-90
2022/11/03 02:03:50;;;;;;;10.32;1.88;;;;;;;;;;6039410;23;20031;-89
2022/11/03 02:08:13;;;;;;;5.80;1.60;;;;;;;;;;6067204;23;20027;-88
2022/11/03 02:16:06;;;;;;;7.07;1.92;;;;;;;;;;5917007;24;20029;-92
2022/11/03 02:19:54;;;;;;;3.53;1.92;;;;;;;;;;5875161;24;20081;-91
2022/11/03 02:24:07;;;;;;;7.60;2.33;;;;;;;;;;5876933;24;20021;-88
2022/11/03 02:27:08;;;;;;;9.10;1.92;;;;;;;;;;5921145;24;20354;-88
2022/11/03 02:39:51;;;;;;;4.70;1.67;;;;;;;;;;5797154;24;20018;-88
2022/11/03 02:43:41;;;;;;;5.60;1.42;;;;;;;;;;5719766;24;20375;-92
2022/11/03 02:47:34;;;;;;;3.97;1.60;;;;;;;;;;5742976;24;20036;-92
2022/11/03 02:51:59;;;;;;;8.57;1.75;;;;;;;;;;5725159;25;20047;-91
2022/11/03 02:56:11;;;;;;;10.27;1.88;;;;;;;;;;5729130;25;20017;-90
2022/11/03 02:59:39;;;;;;;;;;;;;;;;;;5714548;25;20028;-90
2022/11/03 03:02:48;;;;;;;8.10;1.80;;;;;;;;;;5715689;25;19921;-89
2022/11/03 03:06:17;;;;;;;6.25;1.58;;;;;;;;;;5693188;25;20086;-89
2022/11/03 03:14:31;;;;;;;6.55;1.50;;;;;;;;;;5703981;25;20037;-92
2022/11/03 03:19:17;;;;;;;4.90;1.58;;;;;;;;;;5690776;25;20029;-93
2022/11/03 03:23:38;;;;;;;3.40;1.30;;;;;;;;;;5712517;25;20021;-91
2022/11/03 03:27:33;;;;;;;10.02;1.70;;;;;;;;;;5818689;24;20025;-92
2022/11/03 03:35:06;;;;;;;7.57;1.70;;;;;;;;;;5868489;24;20331;-92
2022/11/03 03:39:09;;;;;;;9.23;1.63;;;;;;;;;;5938466;24;20028;-91
2022/11/03 03:50:49;;;;;;;7.75;1.65;;;;;;;;;;5931025;24;20036;-90
2022/11/03 03:53:38;;;;;;;3.28;1.50;;;;;;;;;;5920838;24;20070;-91
2022/11/03 03:57:18;;;;;;;10.88;1.42;;;;;;;;;;5925567;24;20135;-90
2022/11/03 04:00:38;;;;;;;7.00;1.60;;;;;;;;;;5922326;24;20032;-90
2022/11/03 04:04:06;;;;;;;7.45;1.70;;;;;;;;;;5885704;24;20022;-90
2022/11/03 04:23:24;;;;;;;4.05;1.70;;;;;;;;;;6036874;23;20023;-91
2022/11/03 04:31:26;;;;;;;6.50;1.73;;;;;;;;;;6036705;23;20438;-94
2022/11/03 04:35:05;;;;;;;7.10;1.65;;;;;;;;;;5928686;24;20025;-92
2022/11/03 04:38:45;;;;;;;8.63;2.03;;;;;;;;;;5901935;24;20021;-92
2022/11/03 04:42:31;;;;;;;4.40;1.80;;;;;;;;;;5882123;24;20021;-89
2022/11/03 04:45:52;;;;;;;7.43;1.83;;;;;;;;;;5848539;24;20029;-89
2022/11/03 04:48:49;;;;;;;;;;;;;;;;;;5053798;28;20438;-79
2022/11/03 04:51:18;;;;;;;7.63;1.50;;;;;;;;;;5038932;28;19924;-79
2022/11/03 04:53:53;;;;;;;5.68;2.22;;;;;;;;;;5037278;28;20045;-79
2022/11/03 04:56:23;;;;;;;4.07;1.60;;;;;;;;;;5039075;28;20048;-79
2022/11/03 04:58:56;;;;;;;4.65;1.38;;;;;;;;;;5038152;28;20041;-79
2022/11/03 05:01:30;;;;;;;7.78;1.73;;;;;;;;;;5034797;28;20388;-80
2022/11/03 05:03:58;;;;;;;5.20;1.95;;;;;;;;;;5034780;28;20552;-79
2022/11/03 05:06:28;;;;;;;6.55;2.30;;;;;;;;;;5035746;28;20118;-79
2022/11/03 05:09:04;;;;;;;9.27;3.08;;;;;;;;;;5041803;28;20446;-78
2022/11/03 05:11:38;;;;;;;9.18;2.60;;;;;;;;;;5034681;28;20037;-79
2022/11/03 05:14:31;;;;;;;6.93;2.17;;;;;;;;;;5038082;28;20038;-79
2022/11/03 05:17:01;;;;;;;6.25;1.67;;;;;;;;;;5029616;28;20423;-80
2022/11/03 05:20:00;;;;;;;5.78;1.95;;;;;;;;;;5037971;28;20140;-79
2022/11/03 05:22:35;;;;;;;6.00;1.80;;;;;;;;;;5032955;28;20076;-78
2022/11/03 05:25:33;;;;;;;8.52;2.13;;;;;;;;;;5034971;28;20127;-79
2022/11/03 05:28:01;;;;;;;6.03;1.60;;;;;;;;;;5035194;28;20048;-79
2022/11/03 05:30:29;;;;;;;5.13;1.90;;;;;;;;;;5035896;28;20092;-79
2022/11/03 05:33:29;;;;;;;5.18;1.60;;;;;;;;;;5040750;28;20045;-79
2022/11/03 05:35:59;;;;;;;5.93;2.00;;;;;;;;;;5036832;28;20045;-79
2022/11/03 05:38:30;;;;;;;4.93;1.75;;;;;;;;;;5033932;28;20107;-78
2022/11/03 05:41:11;;;;;;;5.72;1.88;;;;;;;;;;5040226;28;20037;-80
2022/11/03 05:44:22;;;;;;;4.25;1.50;;;;;;;;;;5033761;28;20132;-81
2022/11/03 05:46:50;;;;;;;4.28;1.65;;;;;;;;;;5035947;28;20602;-79
2022/11/03 05:49:19;;;;;;;7.97;2.03;;;;;;;;;;5037217;28;20049;-80
2022/11/03 05:51:47;;;;;;;6.20;1.48;;;;;;;;;;5037724;28;20037;-80
2022/11/03 05:54:38;;;;;;;8.82;1.65;;;;;;;;;;5033027;28;20022;-79
2022/11/03 05:57:14;;;;;;;7.07;1.52;;;;;;;;;;5032912;28;20095;-79
2022/11/03 05:59:43;;;;;;;6.68;1.63;;;;;;;;;;5018084;28;20045;-79
2022/11/03 06:02:36;;;;;;;6.53;1.70;;;;;;;;;;5024229;28;20030;-79
2022/11/03 06:05:16;;;;;;;7.97;2.10;;;;;;;;;;5020514;28;20076;-79
2022/11/03 06:08:17;;;;;;;6.20;1.60;;;;;;;;;;5020776;28;20455;-78
2022/11/03 06:11:22;;;;;;;11.77;1.98;;;;;;;;;;5019927;28;20046;-78
2022/11/03 06:13:50;;;;;;;10.20;1.73;;;;;;;;;;5021528;28;20038;-80
2022/11/03 06:16:45;;;;;;;8.02;2.10;;;;;;;;;;5021612;28;20087;-79
2022/11/03 06:19:30;;;;;;;8.07;2.00;;;;;;;;;;5034066;28;20037;-79
2022/11/03 06:22:12;;;;;;;6.97;2.05;;;;;;;;;;5012065;28;20061;-78
2022/11/03 06:24:40;;;;;;;10.45;1.70;;;;;;;;;;5020233;28;20045;-80
2022/11/03 06:27:19;;;;;;;11.90;1.80;;;;;;;;;;5019865;28;20045;-80
2022/11/03 06:29:54;;;;;;;9.45;2.50;;;;;;;;;;5023161;28;20562;-79
2022/11/03 06:32:23;;;;;;;8.15;1.80;;;;;;;;;;5021823;28;20136;-80
2022/11/03 06:34:56;;;;;;;9.07;1.88;;;;;;;;;;5018543;28;20053;-80
2022/11/03 06:37:32;;;;;;;7.97;1.90;;;;;;;;;;5020771;28;20033;-82
2022/11/03 06:40:24;;;;;;;8.50;1.63;;;;;;;;;;5052279;28;20530;-80
2022/11/03 06:43:23;;;;;;;6.22;1.65;;;;;;;;;;5024772;28;20497;-80
2022/11/03 06:45:53;;;;;;;5.03;1.48;;;;;;;;;;5019132;28;20500;-81
2022/11/03 06:48:29;;;;;;;7.07;1.75;;;;;;;;;;5023489;28;20084;-81
2022/11/03 06:50:57;;;;;;;7.15;1.73;;;;;;;;;;5024051;28;20103;-81
2022/11/03 06:53:28;;;;;;;5.68;1.40;;;;;;;;;;5021892;28;20065;-81
2022/11/03 06:55:57;;;;;;;9.65;1.52;;;;;;;;;;5013308;28;20729;-82
2022/11/03 06:58:27;;;;;;;4.70;1.77;;;;;;;;;;5050409;28;20201;-80
2022/11/03 07:00:58;;;;;;;8.32;1.50;;;;;;;;;;5019131;28;20439;-81
2022/11/03 07:03:36;;;;;;;4.55;1.83;;;;;;;;;;5021774;28;20053;-81
2022/11/03 07:06:20;;;;;;;4.18;1.40;;;;;;;;;;5017420;28;20049;-82
2022/11/03 07:08:55;;;;;;;8.10;1.80;;;;;;;;;;5018813;28;20400;-81
2022/11/03 07:11:28;;;;;;;8.00;2.22;;;;;;;;;;5015896;28;20149;-82
2022/11/03 07:14:01;;;;;;;8.02;2.42;;;;;;;;;;5021295;28;20075;-82
2022/11/03 07:16:56;;;;;;;10.98;2.38;;;;;;;;;;5015214;28;20045;-81
2022/11/03 07:19:32;;;;;;;9.85;2.60;;;;;;;;;;5021945;28;20045;-81
2022/11/03 07:22:05;;;;;;;10.95;3.42;;;;;;;;;;5017605;28;20041;-81
2022/11/03 07:24:37;;;;;;;11.30;2.47;;;;;;;;;;5028604;28;20096;-80
2022/11/03 07:27:33;;;;;;;11.30;2.10;;;;;;;;;;5022414;28;20462;-81
2022/11/03 07:30:17;;;;;;;5.78;1.85;;;;;;;;;;5020056;28;20041;-81
2022/11/03 07:32:49;;;;;;;8.68;1.73;;;;;;;;;;5021895;28;20095;-81
2022/11/03 07:35:16;;;;;;;9.82;2.00;;;;;;;;;;5016307;28;20057;-82
2022/11/03 07:37:46;;;;;;;5.57;1.77;;;;;;;;;;5025920;28;20483;-81
2022/11/03 07:40:39;;;;;;;4.20;1.80;;;;;;;;;;5025467;28;20061;-81
2022/11/03 07:43:23;;;;;;;9.23;2.05;;;;;;;;;;5016527;28;20056;-81
2022/11/03 07:45:51;;;;;;;4.93;2.40;;;;;;;;;;5018703;28;20487;-81
2022/11/03 07:48:32;;;;;;;6.30;1.50;;;;;;;;;;5013776;28;20049;-81
2022/11/03 07:51:16;;;;;;;7.78;2.00;;;;;;;;;;5030379;28;20064;-80
2022/11/03 07:53:46;;;;;;;12.75;2.00;;;;;;;;;;5013969;28;20499;-80
2022/11/03 07:56:19;;;;;;;8.88;1.90;;;;;;;;;;5014092;28;20072;-80
2022/11/03 07:58:58;;;;;;;8.38;1.88;;;;;;;;;;5001402;28;20050;-80
2022/11/03 08:01:35;;;;;;;10.45;2.05;;;;;;;;;;5001932;28;20046;-80
2022/11/03 08:04:34;;;;;;;6.70;1.77;;;;;;;;;;5014329;28;20033;-80
2022/11/03 08:07:02;;;;;;;10.85;2.00;;;;;;;;;;5003442;28;20048;-80
2022/11/03 08:09:30;;;;;;;7.75;1.77;;;;;;;;;;5005410;28;20355;-80
2022/11/03 08:11:59;;;;;;;7.13;1.80;;;;;;;;;;5016418;28;20073;-80
2022/11/03 08:14:32;;;;;;;8.50;1.67;;;;;;;;;;5017189;28;20034;-81
2022/11/03 08:17:24;;;;;;;7.95;1.92;;;;;;;;;;5013207;28;20033;-80
2022/11/03 08:19:52;;;;;;;7.05;1.73;;;;;;;;;;5007973;28;20054;-80
2022/11/03 08:22:24;;;;;;;6.18;1.80;;;;;;;;;;5015901;28;20038;-80
2022/11/03 08:24:52;;;;;;;6.22;1.70;;;;;;;;;;5017267;28;20048;-80
2022/11/03 08:27:20;;;;;;;8.13;2.20;;;;;;;;;;5010283;28;20041;-81
2022/11/03 08:29:48;;;;;;;4.38;1.70;;;;;;;;;;5014018;28;20038;-81
2022/11/03 08:32:40;;;;;;;5.85;1.50;;;;;;;;;;5015850;28;20056;-80
2022/11/03 08:35:08;;;;;;;8.02;1.92;;;;;;;;;;5008747;28;20034;-80
2022/11/03 08:37:36;;;;;;;6.22;1.60;;;;;;;;;;5013049;28;20045;-80
2022/11/03 08:40:09;;;;;;;8.93;2.13;;;;;;;;;;5010605;28;20407;-80
2022/11/03 08:42:36;;;;;;;5.32;1.63;;;;;;;;;;5004212;28;20165;-80
2022/11/03 08:45:05;;;;;;;6.57;1.80;;;;;;;;;;5003906;28;20042;-80
2022/11/03 08:47:32;;;;;;;9.48;1.98;;;;;;;;;;5011796;28;20487;-80
2022/11/03 08:50:00;;;;;;;9.07;1.90;;;;;;;;;;5011875;28;20047;-80
2022/11/03 08:52:37;;;;;;;9.48;1.80;;;;;;;;;;5015223;28;20037;-80
2022/11/03 08:55:05;;;;;;;10.32;2.10;;;;;;;;;;5014992;28;20400;-80
2022/11/03 08:57:32;;;;;;;5.63;2.00;;;;;;;;;;5024441;28;20124;-80
2022/11/03 09:00:06;;;;;;;7.43;1.85;;;;;;;;;;5025629;28;20048;-80
2022/11/03 09:02:34;;;;;;;7.13;1.63;;;;;;;;;;5016373;28;20037;-80
2022/11/03 09:05:04;;;;;;;8.48;1.60;;;;;;;;;;5018366;28;20042;-80
2022/11/03 09:07:32;;;;;;;8.63;2.10;;;;;;;;;;5031368;28;20096;-81
2022/11/03 09:10:25;;;;;;;3.63;1.77;;;;;;;;;;5023083;28;20080;-80
2022/11/03 09:13:00;;;;;;;6.53;1.55;;;;;;;;;;5018136;28;20042;-80
2022/11/03 09:15:29;;;;;;;6.35;1.63;;;;;;;;;;5023632;28;20492;-80
2022/11/03 09:17:56;;;;;;;7.05;1.83;;;;;;;;;;5019239;28;20068;-80
2022/11/03 09:20:24;;;;;;;8.80;2.33;;;;;;;;;;5051565;28;20045;-80
2022/11/03 09:22:56;;;;;;;6.32;1.90;;;;;;;;;;5015200;28;20515;-80
2022/11/03 09:25:28;;;;;;;6.45;1.75;;;;;;;;;;5015556;28;20151;-80
2022/11/03 09:27:56;;;;;;;3.90;1.90;;;;;;;;;;5012573;28;20045;-80
2022/11/03 09:30:24;;;;;;;10.65;2.33;;;;;;;;;;5014173;28;20499;-80
2022/11/03 09:32:57;;;;;;;9.50;2.30;;;;;;;;;;5015181;28;20052;-80
2022/11/03 09:35:27;;;;;;;9.18;2.28;;;;;;;;;;5025468;28;20387;-81
2022/11/03 09:37:56;;;;;;;11.82;2.03;;;;;;;;;;4996987;28;20495;-80
2022/11/03 09:40:25;;;;;;;4.75;1.63;;;;;;;;;;5015320;28;20042;-80
2022/11/03 09:42:57;;;;;;;6.15;1.77;;;;;;;;;;5017864;28;20458;-81
2022/11/03 09:45:27;;;;;;;3.70;1.42;;;;;;;;;;5022556;28;20038;-81
2022/11/03 09:48:03;;;;;;;11.23;2.03;;;;;;;;;;5018549;28;20038;-81
2022/11/03 09:50:35;;;;;;;5.43;1.45;;;;;;;;;;5018319;28;20117;-80
2022/11/03 09:53:02;;;;;;;13.45;2.33;;;;;;;;;;5017081;28;20052;-80
2022/11/03 09:55:32;;;;;;;6.28;1.40;;;;;;;;;;5020786;28;20054;-80
2022/11/03 09:58:12;;;;;;;6.03;1.95;;;;;;;;;;5012102;28;20034;-82
2022/11/03 10:00:40;;;;;;;9.80;1.95;;;;;;;;;;5018843;28;20111;-81
2022/11/03 10:03:15;;;;;;;6.55;1.92;;;;;;;;;;5015053;28;20076;-82
2022/11/03 10:05:44;;;;;;;5.50;2.03;;;;;;;;;;5019745;28;20041;-82
2022/11/03 10:08:34;;;;;;;6.60;2.05;;;;;;;;;;5020381;28;20128;-82
2022/11/03 10:11:05;;;;;;;5.13;1.50;;;;;;;;;;5018365;28;20033;-82
2022/11/03 10:14:23;;;;;;;4.95;1.50;;;;;;;;;;5048861;28;20025;-82
2022/11/03 10:17:18;;;;;;;7.72;1.90;;;;;;;;;;5011710;28;20464;-82
2022/11/03 10:19:48;;;;;;;5.50;1.88;;;;;;;;;;5017327;28;20562;-82
2022/11/03 10:22:19;;;;;;;7.72;1.90;;;;;;;;;;5027898;28;20128;-82
2022/11/03 10:24:47;;;;;;;5.30;1.60;;;;;;;;;;5010235;28;20392;-82
2022/11/03 10:27:24;;;;;;;8.98;1.60;;;;;;;;;;5003750;28;20103;-82
2022/11/03 10:30:10;;;;;;;10.07;1.92;;;;;;;;;;5018618;28;20033;-82
2022/11/03 10:32:42;;;;;;;9.27;1.50;;;;;;;;;;5019406;28;20045;-82
2022/11/03 10:35:30;;;;;;;4.50;1.60;;;;;;;;;;5019847;28;20053;-82
2022/11/03 10:38:26;;;;;;;5.65;1.73;;;;;;;;;;5039957;28;20061;-82
2022/11/03 10:40:55;;;;;;;7.90;1.52;;;;;;;;;;5016747;28;20046;-82
2022/11/03 10:43:22;;;;;;;6.15;1.80;;;;;;;;;;5023007;28;20052;-82
2022/11/03 10:46:09;;;;;;;6.65;2.10;;;;;;;;;;5042113;28;20054;-82
2022/11/03 10:49:23;;;;;;;7.38;1.60;;;;;;;;;;5041499;28;20416;-82
2022/11/03 10:52:25;;;;;;;7.07;1.80;;;;;;;;;;5023196;28;20569;-82
2022/11/03 10:54:55;;;;;;;10.55;1.77;;;;;;;;;;5019816;28;20045;-82
2022/11/03 10:57:23;;;;;;;9.90;2.05;;;;;;;;;;5057211;28;20041;-82
2022/11/03 10:59:52;;;;;;;9.70;1.88;;;;;;;;;;5020103;28;20037;-82
2022/11/03 11:02:25;;;;;;;4.78;1.70;;;;;;;;;;5023036;28;20037;-81
2022/11/03 11:05:00;;;;;;;4.10;1.60;;;;;;;;;;5018787;28;20050;-82
2022/11/03 11:07:40;;;;;;;7.85;2.22;;;;;;;;;;5021573;28;20044;-82
2022/11/03 11:10:26;;;;;;;8.30;1.85;;;;;;;;;;5015809;28;20131;-82
2022/11/03 11:13:20;;;;;;;11.55;1.70;;;;;;;;;;5015647;28;20492;-82
2022/11/03 11:15:56;;;;;;;10.43;1.70;;;;;;;;;;5014593;28;20058;-82
2022/11/03 11:18:27;;;;;;;5.65;1.45;;;;;;;;;;5005264;28;20129;-82
2022/11/03 11:20:56;;;;;;;3.97;1.60;;;;;;;;;;5042660;28;20034;-82
2022/11/03 11:23:28;;;;;;;4.05;1.30;;;;;;;;;;5047102;28;20050;-82
2022/11/03 11:26:37;;;;;;;5.53;1.50;;;;;;;;;;5024896;28;20096;-82
2022/11/03 11:29:07;;;;;;;9.13;2.13;;;;;;;;;;5025416;28;20061;-82
2022/11/03 11:32:31;;;;;;;8.10;1.90;;;;;;;;;;5021270;28;20504;-82
2022/11/03 11:35:10;;;;;;;6.53;1.73;;;;;;;;;;5017009;28;20098;-82
2022/11/03 11:37:38;;;;;;;6.30;1.42;;;;;;;;;;5006596;28;20415;-82
2022/11/03 11:40:30;;;;;;;4.38;1.40;;;;;;;;;;5014775;28;20037;-82
2022/11/03 11:43:05;;;;;;;7.78;1.65;;;;;;;;;;5002526;28;20659;-82
2022/11/03 11:46:10;;;;;;;4.60;1.63;;;;;;;;;;4999128;28;20112;-86
2022/11/03 11:48:42;;;;;;;6.80;1.50;;;;;;;;;;5000918;28;20064;-82
2022/11/03 11:51:11;;;;;;;8.85;2.10;;;;;;;;;;5018013;28;20060;-82
2022/11/03 11:53:44;;;;;;;9.18;2.13;;;;;;;;;;5017086;28;20080;-82
2022/11/03 11:56:50;;;;;;;11.00;2.30;;;;;;;;;;5017010;28;20492;-82
2022/11/03 11:59:23;;;;;;;9.82;1.75;;;;;;;;;;5017702;28;20037;-82
2022/11/03 12:01:55;;;;;;;5.68;1.60;;;;;;;;;;5014475;28;20532;-82
2022/11/03 12:04:30;;;;;;;7.40;2.25;;;;;;;;;;5004387;28;20076;-82
2022/11/03 12:06:58;;;;;;;6.18;1.95;;;;;;;;;;5012305;28;20179;-82
2022/11/03 12:09:27;;;;;;;7.95;1.80;;;;;;;;;;4985998;28;20056;-82
2022/11/03 12:11:57;;;;;;;5.85;1.73;;;;;;;;;;5013139;28;20543;-82
2022/11/03 12:14:37;;;;;;;10.65;1.50;;;;;;;;;;5013567;28;20072;-81
2022/11/03 12:17:16;;;;;;;7.95;1.77;;;;;;;;;;5017717;28;20046;-81
2022/11/03 12:20:35;;;;;;;8.00;1.60;;;;;;;;;;5011764;28;20108;-81
2022/11/03 12:23:02;;;;;;;10.73;1.85;;;;;;;;;;5011675;28;20140;-81
2022/11/03 12:25:35;;;;;;;8.25;1.98;;;;;;;;;;5016393;28;20033;-81
2022/11/03 12:28:08;;;;;;;10.02;2.63;;;;;;;;;;5020555;28;20086;-82
2022/11/03 12:30:36;;;;;;;5.75;1.55;;;;;;;;;;5014889;28;20056;-82
2022/11/03 12:33:06;;;;;;;7.57;1.65;;;;;;;;;;5012320;28;20046;-81
2022/11/03 12:35:34;;;;;;;6.30;1.52;;;;;;;;;;5014725;28;20046;-81
2022/11/03 12:38:06;;;;;;;6.35;1.83;;;;;;;;;;5011809;28;20056;-82
2022/11/03 12:43:48;;;;;;;6.40;1.65;;;;;;;;;;5017132;28;20054;-81
2022/11/03 12:46:18;;;;;;;7.10;2.33;;;;;;;;;;5014292;28;20047;-82
2022/11/03 12:48:51;;;;;;;13.25;1.67;;;;;;;;;;5002431;28;20042;-82
2022/11/03 12:51:21;;;;;;;10.57;2.15;;;;;;;;;;5003092;28;20045;-82
2022/11/03 12:53:49;;;;;;;4.63;1.90;;;;;;;;;;5004320;28;20132;-82
2022/11/03 12:56:17;;;;;;;6.30;1.50;;;;;;;;;;5014110;28;20041;-82
2022/11/03 12:58:44;;;;;;;6.47;1.45;;;;;;;;;;5019446;28;20041;-82
2022/11/03 13:01:12;;;;;;;4.82;1.63;;;;;;;;;;5017814;28;20136;-81
2022/11/03 13:04:05;;;;;;;8.40;1.70;;;;;;;;;;5009734;28;20410;-83
2022/11/03 13:06:32;;;;;;;5.90;1.70;;;;;;;;;;5045900;28;20042;-83
2022/11/03 13:09:02;;;;;;;5.93;1.80;;;;;;;;;;5012530;28;20038;-84
2022/11/03 13:14:44;;;;;;;5.93;1.60;;;;;;;;;;5022944;28;20425;-84
2022/11/03 13:17:14;;;;;;;5.28;1.50;;;;;;;;;;5045373;28;20037;-87
2022/11/03 13:20:13;;;;;;;5.45;1.50;;;;;;;;;;5018521;28;20037;-86
2022/11/03 13:22:40;;;;;;;5.35;1.42;;;;;;;;;;5026261;28;20044;-86
2022/11/03 13:25:08;;;;;;;5.45;1.75;;;;;;;;;;5009695;28;20046;-85
2022/11/03 13:27:40;;;;;;;8.43;1.88;;;;;;;;;;5023666;28;20396;-86
2022/11/03 13:30:32;;;;;;;9.90;1.65;;;;;;;;;;5011832;28;20048;-86
2022/11/03 13:33:01;;;;;;;6.97;1.83;;;;;;;;;;5017548;28;20423;-87
2022/11/03 13:35:54;;;;;;;9.43;2.40;;;;;;;;;;5030556;28;20033;-85
2022/11/03 13:38:22;;;;;;;12.52;3.80;;;;;;;;;;5024439;28;20103;-85
2022/11/03 13:40:50;;;;;;;15.45;3.17;;;;;;;;;;5027940;28;20041;-86
2022/11/03 13:43:24;;;;;;;5.25;1.70;;;;;;;;;;5015533;28;20046;-86
2022/11/03 13:45:52;;;;;;;5.50;1.77;;;;;;;;;;5024682;28;20391;-85
2022/11/03 13:48:20;;;;;;;6.72;1.55;;;;;;;;;;5030603;28;20042;-85
2022/11/03 13:51:10;;;;;;;10.95;1.70;;;;;;;;;;5054667;28;20073;-85
2022/11/03 13:54:02;;;;;;;11.57;2.15;;;;;;;;;;5026482;28;20038;-85
2022/11/03 13:56:50;;;;;;;5.63;1.73;;;;;;;;;;5030547;28;20045;-84
2022/11/03 13:59:42;;;;;;;5.57;1.50;;;;;;;;;;5059118;28;20034;-85
2022/11/03 14:02:14;;;;;;;10.55;1.70;;;;;;;;;;5021218;28;20042;-85
2022/11/03 14:05:07;;;;;;;6.30;1.75;;;;;;;;;;5023254;28;20072;-85
2022/11/03 14:07:38;;;;;;;6.65;1.73;;;;;;;;;;5021248;28;20050;-86
2022/11/03 14:10:10;;;;;;;7.93;1.80;;;;;;;;;;5013506;28;20128;-85
2022/11/03 14:12:38;;;;;;;9.00;1.83;;;;;;;;;;5023348;28;20049;-85
2022/11/03 14:15:09;;;;;;;7.18;1.73;;;;;;;;;;5018293;28;20060;-85
2022/11/03 14:17:38;;;;;;;6.22;1.60;;;;;;;;;;5021789;28;20057;-85
2022/11/03 14:20:09;;;;;;;6.72;1.83;;;;;;;;;;5022165;28;20037;-85
2022/11/03 14:22:37;;;;;;;5.15;1.83;;;;;;;;;;5019939;28;20052;-85
2022/11/03 14:25:10;;;;;;;5.47;1.67;;;;;;;;;;5024975;28;20124;-85
2022/11/03 14:27:38;;;;;;;5.28;1.90;;;;;;;;;;5027546;28;20074;-85
2022/11/03 14:30:32;;;;;;;5.57;1.70;;;;;;;;;;5022446;28;20045;-87
2022/11/03 14:33:02;;;;;;;6.95;2.30;;;;;;;;;;5015591;28;20060;-88
2022/11/03 14:35:30;;;;;;;8.48;1.80;;;;;;;;;;5025853;28;20037;-83
2022/11/03 14:37:58;;;;;;;6.40;1.77;;;;;;;;;;5020277;28;20450;-84
2022/11/03 14:43:12;;;;;;;11.95;2.33;;;;;;;;;;5024368;28;20049;-82
2022/11/03 14:45:40;;;;;;;7.82;1.80;;;;;;;;;;5044452;28;20132;-83
2022/11/03 14:48:08;;;;;;;9.13;2.00;;;;;;;;;;5019168;28;20423;-83
2022/11/03 14:50:42;;;;;;;8.18;2.08;;;;;;;;;;5015345;28;20550;-82
2022/11/03 14:53:10;;;;;;;5.10;2.17;;;;;;;;;;5024744;28;20045;-82
2022/11/03 14:55:38;;;;;;;9.27;2.13;;;;;;;;;;5015972;28;20041;-83
2022/11/03 14:58:06;;;;;;;8.48;2.17;;;;;;;;;;5020719;28;20103;-83
2022/11/03 15:00:34;;;;;;;11.75;2.72;;;;;;;;;;5014785;28;20990;-81
2022/11/03 15:03:02;;;;;;;7.72;1.88;;;;;;;;;;5009395;28;20045;-82
2022/11/03 15:05:45;;;;;;;5.72;1.55;;;;;;;;;;5019350;28;20052;-82
2022/11/03 15:08:38;;;;;;;9.80;2.22;;;;;;;;;;5020048;28;20120;-82
2022/11/03 15:11:08;;;;;;;7.25;2.05;;;;;;;;;;5019515;28;20511;-82
2022/11/03 15:13:36;;;;;;;7.30;2.80;;;;;;;;;;5018977;28;20053;-85
2022/11/03 15:16:12;;;;;;;8.43;2.47;;;;;;;;;;5018015;28;20075;-82
2022/11/03 15:18:42;;;;;;;15.45;2.20;;;;;;;;;;5026265;28;20037;-82
2022/11/03 15:21:34;;;;;;;9.38;2.20;;;;;;;;;;5020132;28;20033;-82
2022/11/03 15:24:02;;;;;;;8.43;1.90;;;;;;;;;;5009882;28;20553;-83
2022/11/03 15:26:50;;;;;;;8.48;1.73;;;;;;;;;;5012276;28;20038;-80
2022/11/03 15:29:19;;;;;;;6.80;1.92;;;;;;;;;;5018340;28;20037;-79
2022/11/03 15:31:50;;;;;;;4.85;1.90;;;;;;;;;;5049341;28;20072;-80
2022/11/03 15:34:18;;;;;;;7.43;1.98;;;;;;;;;;5035599;28;20080;-80
2022/11/03 15:37:10;;;;;;;6.65;2.25;;;;;;;;;;5006074;28;20042;-79
2022/11/03 15:39:38;;;;;;;7.80;2.10;;;;;;;;;;5051027;28;20084;-79
2022/11/03 15:42:06;;;;;;;9.65;2.25;;;;;;;;;;5016647;28;20056;-80
2022/11/03 15:44:38;;;;;;;8.82;2.22;;;;;;;;;;5012255;28;20046;-79
2022/11/03 15:47:06;;;;;;;7.45;1.80;;;;;;;;;;5010648;28;20053;-79
2022/11/03 15:49:38;;;;;;;7.25;2.00;;;;;;;;;;5018438;28;20037;-79
2022/11/03 15:52:08;;;;;;;6.68;1.98;;;;;;;;;;5011838;28;20041;-79
2022/11/03 15:55:01;;;;;;;5.97;1.90;;;;;;;;;;5022187;28;20029;-79
2022/11/03 15:57:34;;;;;;;4.57;1.77;;;;;;;;;;5013137;28;20076;-79
2022/11/03 16:00:05;;;;;;;6.05;2.20;;;;;;;;;;5018222;28;20064;-79
2022/11/03 16:02:56;;;;;;;7.32;2.13;;;;;;;;;;5017273;28;20033;-78
2022/11/03 16:05:24;;;;;;;6.30;2.20;;;;;;;;;;5010231;28;20408;-78
2022/11/03 16:07:52;;;;;;;5.90;1.77;;;;;;;;;;5051208;28;20266;-79
2022/11/03 16:10:20;;;;;;;5.82;1.80;;;;;;;;;;5018198;28;20052;-78
2022/11/03 16:12:48;;;;;;;6.60;2.00;;;;;;;;;;5018767;28;20543;-78
2022/11/03 16:15:20;;;;;;;7.72;2.50;;;;;;;;;;5024600;28;20050;-79
2022/11/03 16:17:48;;;;;;;8.68;2.40;;;;;;;;;;5017067;28;20048;-78
2022/11/03 16:20:16;;;;;;;9.18;2.35;;;;;;;;;;5017626;28;20049;-79
2022/11/03 16:22:44;;;;;;;5.47;2.15;;;;;;;;;;5018516;28;20050;-78
2022/11/03 16:25:12;;;;;;;8.13;2.53;;;;;;;;;;5015617;28;20129;-79
2022/11/03 16:27:44;;;;;;;9.07;2.30;;;;;;;;;;5016680;28;20122;-79
2022/11/03 16:30:38;;;;;;;8.18;2.53;;;;;;;;;;5016481;28;20584;-78
2022/11/03 16:33:07;;;;;;;7.93;2.58;;;;;;;;;;5049122;28;20065;-79
2022/11/03 16:35:34;;;;;;;6.40;2.30;;;;;;;;;;5017934;28;20116;-78
2022/11/03 16:38:02;;;;;;;8.70;2.63;;;;;;;;;;5017236;28;20054;-79
2022/11/03 16:40:30;;;;;;;5.13;2.08;;;;;;;;;;5010812;28;20030;-78
2022/11/03 16:42:58;;;;;;;8.55;2.15;;;;;;;;;;5018666;28;20122;-79
2022/11/03 16:45:28;;;;;;;5.07;2.00;;;;;;;;;;5012302;28;20172;-78
2022/11/03 16:48:26;;;;;;;5.93;2.08;;;;;;;;;;5005173;28;20037;-78
2022/11/03 16:50:58;;;;;;;10.63;2.63;;;;;;;;;;5028763;28;20505;-78
2022/11/03 16:53:26;;;;;;;7.05;2.40;;;;;;;;;;5017241;28;20156;-78
2022/11/03 16:55:54;;;;;;;6.20;2.35;;;;;;;;;;5016620;28;20034;-78
2022/11/03 16:58:22;;;;;;;7.85;2.67;;;;;;;;;;5018251;28;20065;-78
2022/11/03 17:00:50;;;;;;;5.55;2.67;;;;;;;;;;5006145;28;20128;-78
2022/11/03 17:04:07;;;;;;;9.80;2.38;;;;;;;;;;5014860;28;20038;-78
2022/11/03 17:06:34;;;;;;;8.70;2.38;;;;;;;;;;5014342;28;20041;-78
2022/11/03 17:09:04;;;;;;;8.65;2.50;;;;;;;;;;5019631;28;20095;-78
2022/11/03 17:11:36;;;;;;;6.40;1.85;;;;;;;;;;5011486;28;20069;-79
2022/11/03 17:14:06;;;;;;;6.82;2.50;;;;;;;;;;5014908;28;20559;-79
2022/11/03 17:16:34;;;;;;;6.95;2.42;;;;;;;;;;5019619;28;20030;-78
2022/11/03 17:19:02;;;;;;;9.27;2.58;;;;;;;;;;5013285;28;20056;-78
2022/11/03 17:21:35;;;;;;;8.25;2.45;;;;;;;;;;5013498;28;20050;-78
2022/11/03 17:24:28;;;;;;;8.77;3.45;;;;;;;;;;5015410;28;20045;-78
2022/11/03 17:27:00;;;;;;;11.00;2.70;;;;;;;;;;5011444;28;20510;-79
2022/11/03 17:29:33;;;;;;;6.82;2.28;;;;;;;;;;5014927;28;20044;-78
2022/11/03 17:32:04;;;;;;;6.22;2.22;;;;;;;;;;5026015;28;20049;-78
2022/11/03 17:34:38;;;;;;;10.43;2.80;;;;;;;;;;5015346;28;20396;-78
2022/11/03 17:37:06;;;;;;;8.40;2.70;;;;;;;;;;5014306;28;20923;-78
2022/11/03 17:39:36;;;;;;;5.40;2.47;;;;;;;;;;5013845;28;20037;-78
2022/11/03 17:42:24;;;;;;;6.03;2.22;;;;;;;;;;5015370;28;20073;-78
2022/11/03 17:45:19;;;;;;;8.85;2.60;;;;;;;;;;5021041;28;20518;-78
2022/11/03 17:47:48;;;;;;;8.95;3.10;;;;;;;;;;5020468;28;20491;-78
2022/11/03 17:51:10;;;;;;;7.35;3.08;;;;;;;;;;5011825;28;20029;-78
2022/11/03 17:53:41;;;;;;;6.35;2.45;;;;;;;;;;5006386;28;20053;-78
2022/11/03 17:56:15;;;;;;;8.55;2.33;;;;;;;;;;5021845;28;20045;-78
2022/11/03 17:58:56;;;;;;;7.55;2.58;;;;;;;;;;5014864;28;20042;-78
2022/11/03 18:01:25;;;;;;;10.38;2.88;;;;;;;;;;5011960;28;20064;-78
2022/11/03 18:04:18;;;;;;;7.80;2.65;;;;;;;;;;5016526;28;20037;-78
2022/11/03 18:06:46;;;;;;;8.80;2.70;;;;;;;;;;5023258;28;20045;-78
2022/11/03 18:09:15;;;;;;;6.00;2.10;;;;;;;;;;5018533;28;20582;-78
2022/11/03 18:14:34;;;;;;;8.25;2.40;;;;;;;;;;5019778;28;20050;-78
2022/11/03 18:17:02;;;;;;;9.18;2.47;;;;;;;;;;5012818;28;20038;-78